Date,TemperatureHighF,TemperatureAvgF,TemperatureLowF,DewpointHighF,DewpointAvgF,DewpointLowF,HumidityHigh,HumidityAvg,HumidityLow,PressureMaxIn,PressureMinIn,WindSpeedMaxMPH,WindSpeedAvgMPH,GustSpeedMaxMPH,PrecipitationSumIn
2013-1-1,78.0,72.4,65.0,63.0,59.3,49.0,69,64,54,30.10,29.96,6,0,21,0.00
2013-1-2,84.0,70.6,60.0,66.0,33.2,-21.0,66,36,3,29.99,29.89,1,0,8,0.00
2013-1-3,81.0,73.1,66.0,68.0,30.2,-17.0,67,35,3,30.03,29.93,1,0,6,0.00
2013-1-4,82.0,71.7,65.0,68.0,13.8,-18.0,66,22,3,30.14,30.01,6,1,13,0.00
2013-1-5,74.0,69.3,66.0,38.0,-11.2,-17.0,28,4,3,30.16,30.07,1,0,7,0.11
2013-1-6,82.0,71.8,64.0,69.0,12.6,-18.0,66,22,3,30.10,29.96,0,0,14,0.01
2013-1-7,76.0,71.5,67.0,62.0,2.7,-16.0,61,12,3,30.07,29.98,7,1,14,0.02
2013-1-8,80.0,75.7,72.0,66.0,27.0,-13.0,62,25,3,30.11,29.98,1,0,6,0.39
2013-1-9,81.0,77.5,74.0,68.0,51.4,-12.0,65,47,3,30.19,30.07,1,0,9,0.03
2013-1-10,76.0,75.5,75.0,64.0,61.3,56.0,67,62,52,30.18,30.16,0,0,7,0.00
2013-1-11,78.0,75.0,74.0,65.0,55.1,18.0,66,52,12,30.16,30.06,2,0,12,0.12
2013-1-12,80.0,75.6,73.0,67.0,62.3,57.0,67,64,58,30.09,30.00,3,0,10,0.05
2013-1-13,81.0,75.5,73.0,68.0,62.8,58.0,67,65,57,30.03,29.98,1,0,5,0.00
2013-1-14,81.0,74.5,66.0,66.0,59.4,13.0,68,61,12,30.07,30.02,1,0,12,0.00
2013-1-15,80.0,75.1,70.0,67.0,61.6,48.0,67,63,49,30.04,29.95,1,0,7,0.00
2013-1-16,81.0,72.3,63.0,68.0,34.6,-19.0,66,38,3,30.01,29.92,1,0,6,0.00
2013-1-17,81.0,71.8,62.0,68.0,32.2,-15.0,67,39,3,29.99,29.87,9,1,20,0.12
2013-1-18,71.0,62.8,52.0,59.0,51.2,41.0,71,66,59,30.13,29.98,7,2,17,0.01
2013-1-19,73.0,69.9,67.0,61.0,21.4,-16.0,67,33,3,30.11,30.01,2,0,9,0.21
2013-1-20,77.0,70.3,64.0,64.0,21.7,-18.0,65,30,3,30.04,29.92,6,1,14,0.03
2013-1-21,80.0,71.7,66.0,67.0,21.1,-17.0,65,27,3,29.96,29.86,3,0,12,0.52
2013-1-22,74.0,68.1,63.0,61.0,33.6,-18.0,65,40,3,30.12,29.90,9,4,22,0.00
2013-1-23,74.0,67.0,61.0,60.0,53.1,45.0,68,61,48,30.20,30.10,7,2,13,0.00
2013-1-24,75.0,65.1,59.0,54.0,48.6,40.0,69,56,40,30.19,30.10,6,1,13,0.00
2013-1-25,74.0,65.0,57.0,60.0,50.7,36.0,68,60,36,30.19,30.09,3,0,12,0.00
2013-1-26,77.0,67.0,58.0,59.0,46.3,1.0,68,50,9,30.16,30.07,4,1,12,0.00
2013-1-27,77.0,69.4,61.0,61.0,49.4,11.0,67,51,14,30.19,30.10,7,1,15,0.00
2013-1-28,80.0,74.4,72.0,65.0,61.3,52.0,67,64,47,30.22,30.13,2,0,10,0.00
2013-1-29,78.0,74.6,73.0,66.0,52.6,-12.0,66,50,3,30.15,30.03,1,0,9,0.05
2013-1-30,79.0,74.6,71.0,66.0,57.7,12.0,67,58,11,30.03,29.88,7,1,20,0.01
2013-1-31,72.0,64.6,58.0,54.0,42.3,-18.0,68,53,3,30.09,29.89,2,1,12,0.01
2013-2-1,71.0,61.1,52.0,56.0,47.7,38.0,69,62,52,30.17,30.07,12,3,20,0.01
2013-2-2,72.0,62.4,55.0,53.0,47.1,37.0,69,58,48,30.16,30.03,5,0,13,0.00
2013-2-3,73.0,63.5,53.0,52.0,42.5,4.0,69,49,13,30.07,29.97,6,1,16,0.00
2013-2-4,76.0,61.3,49.0,54.0,45.4,38.0,71,58,31,30.04,29.92,3,0,14,0.00
2013-2-5,77.0,69.7,52.0,61.0,47.7,-26.0,67,51,3,29.98,29.90,1,0,6,0.00
2013-2-6,77.0,72.3,59.0,64.0,48.0,-22.0,67,53,3,30.01,29.92,1,0,9,0.00
2013-2-7,80.0,74.0,69.0,66.0,60.9,54.0,66,64,56,29.98,29.85,2,0,9,0.00
2013-2-8,84.0,78.5,67.0,69.0,58.8,-16.0,65,54,3,29.93,29.84,5,0,13,0.00
2013-2-9,78.0,72.6,64.0,64.0,46.6,-18.0,66,53,3,30.08,29.92,6,2,16,0.00
2013-2-10,75.0,71.9,68.0,62.0,58.9,22.0,67,64,17,30.17,30.06,3,1,16,0.04
2013-2-11,78.0,73.5,69.0,65.0,60.5,56.0,67,64,57,30.12,30.01,3,0,16,0.03
2013-2-12,82.0,76.7,71.0,69.0,60.5,40.0,64,58,30,30.02,29.87,2,0,15,0.00
2013-2-14,64.0,64.0,64.0,-18.0,-18.0,-18.0,3,3,3,29.91,29.91,3,3,12,0.02
2013-2-15,72.0,67.2,64.0,51.0,-10.7,-18.0,48,6,3,29.93,29.85,6,1,12,2.15
2013-2-16,74.0,67.9,63.0,61.0,33.3,-19.0,66,41,3,29.87,29.78,8,2,20,0.02
2013-5-2,74.0,71.5,70.0,18.0,-11.7,-14.0,12,4,3,29.80,29.72,5,2,20,2.78
2013-5-3,87.0,76.4,70.0,70.0,18.9,-14.0,61,25,3,29.73,29.59,2,0,14,2.38
2013-5-4,88.0,78.3,68.0,70.0,37.8,-16.0,61,37,3,29.70,29.59,2,0,15,0.48
2013-5-5,84.0,74.5,67.0,66.0,33.1,-16.0,62,34,3,29.83,29.65,4,1,16,0.00
2013-5-6,86.0,72.6,59.0,64.0,46.4,-22.0,64,48,3,29.91,29.82,4,0,12,0.00
2013-5-7,84.0,70.4,62.0,63.0,50.8,36.0,63,50,35,29.95,29.87,6,1,15,0.00
2013-5-9,85.0,81.1,73.0,70.0,57.4,2.0,60,47,14,30.04,29.96,0,0,5,0.00
2013-5-10,87.0,79.4,75.0,71.0,29.0,-99.9,60,28,3,30.03,29.92,1,0,7,0.00
2013-5-11,86.0,79.4,73.0,69.0,22.7,-12.0,58,23,3,29.97,29.88,5,1,14,0.26
2013-5-12,89.0,76.7,71.0,73.0,13.7,-99.9,60,21,3,29.96,29.84,1,0,13,0.94
2013-5-13,89.0,77.9,70.0,71.0,30.7,-14.0,60,33,3,29.98,29.89,6,1,13,0.72
2013-5-14,79.0,76.3,74.0,61.0,59.0,55.0,61,55,49,30.08,29.97,6,2,17,0.00
2013-5-15,80.0,74.7,73.0,62.0,59.3,56.0,61,59,51,30.09,30.00,3,0,12,0.00
2013-5-16,81.0,69.3,69.0,64.0,38.0,-99.9,62,59,52,30.02,29.95,2,0,9,0.00
2013-5-17,84.0,75.6,70.0,68.0,35.1,-99.9,61,42,3,29.99,29.91,6,1,15,0.00
2013-5-18,84.0,79.0,72.0,67.0,31.9,-13.0,57,29,3,30.01,29.94,1,0,3,0.11
2013-5-19,85.0,81.1,75.0,69.0,60.5,-11.0,60,52,3,30.01,29.91,2,0,10,0.02
2013-5-20,80.0,75.5,70.0,50.0,-3.6,-14.0,37,6,3,29.99,29.88,5,0,16,4.14
2013-5-21,82.0,75.1,69.0,63.0,9.3,-15.0,54,14,3,29.97,29.85,5,0,16,2.40
2013-5-22,82.0,77.5,74.0,66.0,12.0,-12.0,59,15,3,29.88,29.80,1,0,13,0.09
2013-5-23,93.0,81.5,74.0,73.0,21.8,-12.0,60,21,3,29.91,29.81,2,0,12,0.03
2013-5-24,89.0,82.6,75.0,73.0,36.6,-11.0,60,32,3,29.95,29.85,6,1,13,0.00
2013-5-25,84.0,80.4,77.0,68.0,49.9,-10.0,61,45,3,30.07,29.95,8,3,20,0.00
2013-5-26,83.0,78.7,73.0,67.0,63.1,57.0,62,59,52,30.08,30.01,6,2,17,0.00
2013-5-27,83.0,79.3,75.0,66.0,58.0,-9.0,61,51,3,30.06,29.98,6,2,16,0.00
2013-5-28,82.0,78.6,75.0,61.0,23.2,-11.0,50,18,3,30.02,29.96,3,0,13,0.16
2013-5-29,81.0,76.7,72.0,56.0,2.2,-13.0,44,7,3,30.00,29.93,2,0,13,2.09
2013-5-30,81.0,78.0,74.0,58.0,13.9,-12.0,47,15,3,29.98,29.91,5,1,20,1.32
2013-5-31,83.0,78.8,75.0,61.0,9.7,-11.0,47,12,3,29.97,29.91,5,1,18,0.47
2013-6-1,84.0,78.2,75.0,57.0,0.2,-12.0,40,7,3,29.95,29.87,2,0,13,1.07
2013-6-2,87.0,79.1,72.0,69.0,17.9,-99.9,56,21,3,29.91,29.83,1,0,7,0.46
2013-8-13,83.0,77.8,80.0,80.0,66.6,-99.9,91,77,78,29.93,29.90,0,0,3,0.00
2013-8-14,83.0,78.3,76.0,78.0,71.2,69.0,85,79,78,29.92,29.87,0,0,1,0.00
2013-8-15,87.0,63.6,81.0,81.0,29.8,-99.9,100,70,78,29.96,29.86,0,0,3,0.07
2013-8-16,86.0,80.5,79.0,83.0,72.2,-99.9,100,82,78,29.95,29.89,0,0,3,0.12
2013-8-17,85.0,83.7,83.0,83.0,77.3,75.0,98,82,78,29.98,29.91,0,0,1,0.12
2013-8-18,84.0,80.5,81.0,83.0,73.7,-99.9,100,86,78,29.98,29.91,0,0,3,0.31
2013-8-19,89.0,74.6,82.0,83.0,53.3,-99.9,100,81,78,29.98,29.88,0,0,3,0.31
2013-8-20,84.0,82.8,82.0,83.0,77.4,72.0,100,84,78,29.96,29.88,1,0,6,0.04
2013-8-21,86.0,82.5,79.0,86.0,76.2,72.0,100,82,78,29.98,29.91,0,0,10,0.24
2013-8-22,84.0,83.4,83.0,79.0,76.0,75.0,88,79,78,29.96,29.93,0,0,0,0.11
2013-12-10,78.0,74.7,72.0,71.0,67.7,64.0,78,78,78,30.05,30.00,0,0,0,0.02
2013-12-11,80.0,72.0,68.0,74.0,65.1,61.0,88,78,78,30.10,30.01,2,0,8,0.00
2013-12-12,71.0,70.2,70.0,64.0,63.2,63.0,78,78,78,30.06,30.03,0,0,0,0.00
2013-12-19,62.0,62.0,62.0,55.0,55.0,55.0,78,78,78,30.12,30.12,0,0,0,0.00
2013-12-21,80.0,77.6,77.0,77.0,72.6,70.0,96,85,78,30.04,29.99,0,0,6,0.00
2013-12-22,79.0,78.3,78.0,77.0,71.6,71.0,93,79,78,30.06,29.98,0,0,6,0.00
2013-12-23,80.0,77.3,73.0,77.0,70.7,66.0,94,79,78,30.07,30.01,0,0,1,0.00
2013-12-24,73.0,71.0,69.0,69.0,67.5,66.0,100,89,78,30.05,30.04,7,4,17,0.00
2013-12-25,73.0,73.0,73.0,73.0,70.6,69.0,99,92,87,30.02,30.01,3,2,17,0.00
2013-12-26,76.0,74.7,73.0,74.0,70.6,67.0,98,87,78,30.07,29.98,2,0,10,0.00
2014-1-1,78.0,77.2,77.0,71.0,70.2,70.0,78,78,78,29.97,29.94,0,0,0,0.00
2014-1-2,78.0,73.2,68.0,72.0,66.3,61.0,82,78,78,29.94,29.82,0,0,3,0.00